Meteo Giornale » Osservazioni meteo Svezia » Stockholm-Arlanda

ore: 14:20 - Osservazioni Meteo Stockholm-Arlanda
Lat. 59° 39' N Lon. 17° 57' E Alt. 38 metri s.l.m.

molto_nuvoloso Europe/Stockholm

2 °C

Molto Nuvoloso

Temp. 24 Ore

2 °C

3 °C

Sud-Est

20.3 Km/h

Dew point -1 °C

Umidità 80 %

Visibilità  10 Km

Il sole sorge alle ore 08:21

Il sole tramonta alle ore 14:54

Data e Ora Cielo e Fenomeni T °C DP °C Um. % Pres. hPa Vis. km Vento km/h
Oggi h: 14:20 molto_nuvoloso Molto Nuvoloso 2 -1 80 1010 10 SE 20.3
Oggi h: 13:50 molto_nuvoloso Molto Nuvoloso 2 -2 74 1011 10 SE 13
Oggi h: 13:20 molto_nuvoloso Molto Nuvoloso 2 -2 74 1011 10 SE 14.8
Oggi h: 12:50 molto_nuvoloso Molto Nuvoloso 3 -2 69 1011 10 S/SE 18.5
Oggi h: 12:20 molto_nuvoloso Molto Nuvoloso 3 -2 69 1011 10 S/SE 22.2
Oggi h: 11:50 molto_nuvoloso Molto Nuvoloso 2 -2 74 1012 10 S/SE 16.7
Oggi h: 11:20 molto_nuvoloso Molto Nuvoloso 2 -0 86 1012 10 S/SE 9.3
Oggi h: 10:50 molto_nuvoloso Molto Nuvoloso 2 -0 86 1012 10 SE 11.1
Oggi h: 10:20 coperto_pioggia Pioviggine Leggera 3 -1 74 1012 10 S 16.7
Oggi h: 09:50 molto_nuvoloso Molto Nuvoloso 3 -1 74 1012 10 S 22.2
Oggi h: 09:20 molto_nuvoloso Molto Nuvoloso 2 -2 74 1012 10 S/SE 14.8
Oggi h: 08:50 molto_nuvoloso Molto Nuvoloso 2 -2 74 1013 10 S/SE 14.8
Oggi h: 08:20 molto_nuvoloso Molto Nuvoloso 2 -2 74 1013 10 S 18.5
Oggi h: 07:50 molto_nuvoloso Molto Nuvoloso 2 -2 74 1012 10 S 22.2
Oggi h: 07:20 molto_nuvoloso Molto Nuvoloso 2 -2 74 1012 10 S/SE 24
Oggi h: 06:50 molto_nuvoloso Molto Nuvoloso 2 -2 74 1013 10 S 29.6
Oggi h: 06:20 molto_nuvoloso Molto Nuvoloso 2 -2 74 1013 10 S 24
Oggi h: 05:50 molto_nuvoloso Molto Nuvoloso 2 -2 74 1013 10 S 27.8
Oggi h: 04:50 coperto Coperto 2 -1 80 1014 10 S 16.7
Oggi h: 04:20 coperto Coperto 2 -1 80 1014 10 S 14.8
Oggi h: 03:50 coperto Coperto 2 -1 80 1014 10 S/SE 14.8
Oggi h: 03:20 coperto Coperto 2 -1 80 1015 10 S/SE 14.8
Oggi h: 02:50 coperto Coperto 2 -1 80 1015 10 S 18.5
Oggi h: 02:20 coperto Coperto 2 -1 80 1015 10 S/SE 22.2
Oggi h: 01:50 coperto Coperto 2 -1 80 1015 10 S/SE 14.8
Oggi h: 01:20 coperto Coperto 2 -0 86 1016 10 SE 13
Oggi h: 00:50 coperto Coperto 2 -0 86 1016 10 SE 13
Oggi h: 00:20 coperto Coperto 2 -1 80 1016 10 S/SE 16.7
Ieri h: 23:50 coperto Coperto 2 -0 86 1017 10 S/SE 16.7
Ieri h: 23:20 molto_nuvoloso Molto Nuvoloso 3 -0 80 1017 10 S 18.5
Ieri h: 22:50 molto_nuvoloso Molto Nuvoloso 3 0 80 1017 10 S 18.5
Ieri h: 22:20 molto_nuvoloso Molto Nuvoloso 3 1 86 1017 10 S/SE 18.5
Ieri h: 21:50 molto_nuvoloso Molto Nuvoloso 2 1 93 1018 10 S 14.8
Ieri h: 21:20 coperto_pioggia Pioviggine 2 1 93 1018 9 S 22.2
Ieri h: 20:50 coperto_pioggia Pioggia Debole 3 1 86 1018 9 S 24
Ieri h: 20:20 coperto_pioggia Pioviggine Leggera 3 1 86 1018 8 S/SE 22.2
Ieri h: 19:50 molto_nuvoloso Molto Nuvoloso 3 2 93 1018 9 SE 14.8
Ieri h: 19:20 molto_nuvoloso Molto Nuvoloso 2 2 100 1019 10 SE 13
Ieri h: 18:50 molto_nuvoloso Molto Nuvoloso 2 2 100 1019 10 SE 11.1
Ieri h: 18:20 sereno Sereno 2 2 100 1019 10 SE 7.4
Ieri h: 17:50 molto_nuvoloso Molto Nuvoloso 2 2 100 1019 10 SE 7.4
Ieri h: 17:20 molto_nuvoloso Molto Nuvoloso 3 2 93 1020 10 SE 14.8
Ieri h: 16:50 molto_nuvoloso Molto Nuvoloso 2 2 100 1020 9 E/SE 9.3
Ieri h: 16:20 sereno Sereno 2 2 100 1020 8 SE 11.1
Ieri h: 15:50 sereno Sereno 2 2 100 1021 9 SE 11.1
Ieri h: 15:20 sereno Sereno 2 2 100 1021 9 SE 11.1
Ieri h: 14:50 sereno Sereno 2 2 100 1021 8 SE 9.3
Ieri h: 14:20 sereno Sereno 2 2 100 1022 7 SE 9.3
Ieri h: 13:50 sereno Sereno 2 2 100 1022 10 SE 9.3